Terminal Aerodrome Forecast
Issued by NWS Wilmington, OH

Current Version | Previous Version | Graphics & Text | Print | Product List | Glossary On
Versions: 1 2 3 4 5 6 7 8 9 10 11 12 13 14 15 16 17 18 19 20 21 22 23 24 25 26 27
000
FTUS41 KILN 261736
TAFCVG
TAF
KCVG 261736Z 2618/2724 20007KT P6SM SCT040 BKN250
     FM270300 18007KT P6SM -SHRA VCTS SCT025 BKN035CB
     FM270900 24008KT P6SM OVC015
     FM271600 28008KT P6SM BKN035
     FM272100 29008KT P6SM VCTS BKN040CB=

USA.gov is the U.S. government's official web portal to all federal, state and local government web resources and services.